PWSweather.com
Personal Weather Stations
Station Observations
UXOLA
Alcoy, AlcoyES

AlcoyAlcoyES

Lat: 38.70299, Lon: -0.48184

Elevation: 1935

Station Type: PCE FWS-20,

http://www.fiestasalcoy.xyz

High Low Average
Temperature 51.4°F10.8°C 40.3°F4.6°C 44.5°F6.9°C
Dew Point 38.4°F3.6°C 28.4°F-2.0°C 33.7°F0.9°C
Winds 10.7 mph 17.2 kmh Calm Calm 3.0 mph ESE4.8 kmh ESE
Wind Gusts 20.6 mph33.2 kmh 0.7 mph1.1 kmh 7.0 mph11.3 kmh
Humidity 89% 46% 67%
Pressure 29.67 in1004.7 mb 29.50 in999.0 mb -
Precipitation 0.01 in0.3 mm - -
Hour Temp Dew Point Humidity Winds Wind Gusts Pressure Precip Precip Rate Daily Precip Total
12:00 AM 47.1°F8.4°C 34.0°F1.1°C 60% 2.2 mph SE3.5 kmh SE 3.1 mph5.0 kmh 29.67 in1004.7 mb 0.00 in0.0 mm 0.00 in0.0 mm 0.00 in0.0 mm
12:15 AM 47.3°F8.5°C 34.1°F1.2°C 60% 0.7 mph ESE1.1 kmh ESE 5.4 mph8.7 kmh 29.67 in1004.7 mb 0.00 in0.0 mm 0.00 in0.0 mm 0.00 in0.0 mm
12:30 AM 46.6°F8.1°C 33.5°F0.8°C 60% 0.7 mph S1.1 kmh S 3.8 mph6.1 kmh 29.67 in1004.7 mb 0.00 in0.0 mm 0.00 in0.0 mm 0.00 in0.0 mm
12:45 AM 46.0°F7.8°C 33.4°F0.8°C 61% 2.2 mph SW3.5 kmh SW 3.8 mph6.1 kmh 29.67 in1004.7 mb 0.00 in0.0 mm 0.00 in0.0 mm 0.00 in0.0 mm
01:00 AM 46.2°F7.9°C 33.1°F0.6°C 60% 2.2 mph NW3.5 kmh NW 4.5 mph7.2 kmh 29.67 in1004.7 mb 0.00 in0.0 mm 0.00 in0.0 mm 0.00 in0.0 mm
01:15 AM 45.7°F7.6°C 32.6°F0.3°C 60% Calm Calm 4.5 mph7.2 kmh 29.67 in1004.7 mb 0.00 in0.0 mm 0.00 in0.0 mm 0.00 in0.0 mm
01:30 AM 45.0°F7.2°C 32.3°F0.2°C 61% 0.7 mph SSW1.1 kmh SSW 1.6 mph2.6 kmh 29.66 in1004.4 mb 0.00 in0.0 mm 0.00 in0.0 mm 0.00 in0.0 mm
01:45 AM 44.4°F6.9°C 31.8°F-0.1°C 61% 0.7 mph S1.1 kmh S 2.2 mph3.5 kmh 29.66 in1004.4 mb 0.00 in0.0 mm 0.00 in0.0 mm 0.00 in0.0 mm
02:00 AM 44.2°F6.8°C 31.7°F-0.2°C 61% 0.7 mph SW1.1 kmh SW 3.1 mph5.0 kmh 29.65 in1004.1 mb 0.00 in0.0 mm 0.00 in0.0 mm 0.00 in0.0 mm
02:15 AM 43.9°F6.6°C 33.3°F0.7°C 66% Calm Calm 2.2 mph3.5 kmh 29.65 in1004.1 mb 0.00 in0.0 mm 0.00 in0.0 mm 0.00 in0.0 mm
02:30 AM 43.5°F6.4°C 32.9°F0.5°C 66% Calm Calm 3.1 mph5.0 kmh 29.64 in1003.7 mb 0.00 in0.0 mm 0.00 in0.0 mm 0.00 in0.0 mm
02:45 AM 43.0°F6.1°C 33.2°F0.7°C 68% Calm Calm 1.6 mph2.6 kmh 29.63 in1003.4 mb 0.00 in0.0 mm 0.00 in0.0 mm 0.00 in0.0 mm
03:00 AM 42.4°F5.8°C 32.6°F0.3°C 68% Calm Calm 1.6 mph2.6 kmh 29.62 in1003.0 mb 0.00 in0.0 mm 0.00 in0.0 mm 0.00 in0.0 mm
03:15 AM 42.1°F5.6°C 32.3°F0.2°C 68% Calm Calm 2.2 mph3.5 kmh 29.60 in1002.4 mb 0.00 in0.0 mm 0.00 in0.0 mm 0.00 in0.0 mm
03:30 AM 41.5°F5.3°C 32.1°F0.1°C 69% Calm Calm 1.6 mph2.6 kmh 29.60 in1002.4 mb 0.00 in0.0 mm 0.00 in0.0 mm 0.00 in0.0 mm
03:45 AM 41.4°F5.2°C 32.0°F0.0°C 69% 1.6 mph SSW2.6 kmh SSW 3.8 mph6.1 kmh 29.60 in1002.4 mb 0.00 in0.0 mm 0.00 in0.0 mm 0.00 in0.0 mm
04:00 AM 40.8°F4.9°C 31.8°F-0.1°C 70% Calm Calm 6.0 mph9.7 kmh 29.60 in1002.4 mb 0.00 in0.0 mm 0.00 in0.0 mm 0.00 in0.0 mm
04:15 AM 40.6°F4.8°C 31.6°F-0.2°C 70% 1.6 mph E2.6 kmh E 2.2 mph3.5 kmh 29.59 in1002.0 mb 0.00 in0.0 mm 0.00 in0.0 mm 0.00 in0.0 mm
04:30 AM 40.5°F4.7°C 31.5°F-0.3°C 70% 0.7 mph WSW1.1 kmh WSW 4.5 mph7.2 kmh 29.59 in1002.0 mb 0.00 in0.0 mm 0.00 in0.0 mm 0.00 in0.0 mm
04:45 AM 40.5°F4.7°C 31.5°F-0.3°C 70% 0.7 mph W1.1 kmh W 1.6 mph2.6 kmh 29.58 in1001.7 mb 0.00 in0.0 mm 0.00 in0.0 mm 0.00 in0.0 mm
05:00 AM 41.0°F5.0°C 32.0°F0.0°C 70% Calm Calm 5.4 mph8.7 kmh 29.59 in1002.0 mb 0.00 in0.0 mm 0.00 in0.0 mm 0.00 in0.0 mm
05:15 AM 41.2°F5.1°C 31.8°F-0.1°C 69% Calm Calm 2.2 mph3.5 kmh 29.59 in1002.0 mb 0.00 in0.0 mm 0.00 in0.0 mm 0.00 in0.0 mm
05:30 AM 41.7°F5.4°C 32.3°F0.2°C 69% 0.7 mph SW1.1 kmh SW 3.1 mph5.0 kmh 29.59 in1002.0 mb 0.00 in0.0 mm 0.00 in0.0 mm 0.00 in0.0 mm
05:45 AM 42.1°F5.6°C 32.3°F0.2°C 68% Calm Calm 1.6 mph2.6 kmh 29.59 in1002.0 mb 0.00 in0.0 mm 0.00 in0.0 mm 0.00 in0.0 mm
06:00 AM 42.4°F5.8°C 32.6°F0.3°C 68% 2.2 mph E3.5 kmh E 3.1 mph5.0 kmh 29.59 in1002.0 mb 0.00 in0.0 mm 0.00 in0.0 mm 0.00 in0.0 mm
06:15 AM 42.4°F5.8°C 32.3°F0.2°C 67% 2.2 mph SW3.5 kmh SW 3.1 mph5.0 kmh 29.57 in1001.4 mb 0.00 in0.0 mm 0.00 in0.0 mm 0.00 in0.0 mm
06:30 AM 42.1°F5.6°C 31.9°F-0.1°C 67% Calm Calm 3.1 mph5.0 kmh 29.57 in1001.4 mb 0.00 in0.0 mm 0.00 in0.0 mm 0.00 in0.0 mm
06:45 AM 42.4°F5.8°C 32.6°F0.3°C 68% 0.7 mph S1.1 kmh S 1.6 mph2.6 kmh 29.57 in1001.4 mb 0.00 in0.0 mm 0.00 in0.0 mm 0.00 in0.0 mm
07:00 AM 42.6°F5.9°C 32.8°F0.4°C 68% Calm Calm 2.2 mph3.5 kmh 29.57 in1001.4 mb 0.00 in0.0 mm 0.00 in0.0 mm 0.00 in0.0 mm
07:15 AM 43.0°F6.1°C 32.8°F0.4°C 67% 1.6 mph SW2.6 kmh SW 3.1 mph5.0 kmh 29.57 in1001.4 mb 0.00 in0.0 mm 0.00 in0.0 mm 0.00 in0.0 mm
07:30 AM 43.0°F6.1°C 32.8°F0.4°C 67% 0.7 mph SW1.1 kmh SW 2.2 mph3.5 kmh 29.56 in1001.0 mb 0.00 in0.0 mm 0.00 in0.0 mm 0.00 in0.0 mm
07:45 AM 43.2°F6.2°C 33.0°F0.6°C 67% 0.7 mph SW1.1 kmh SW 3.8 mph6.1 kmh 29.55 in1000.7 mb 0.00 in0.0 mm 0.00 in0.0 mm 0.00 in0.0 mm
08:00 AM 43.5°F6.4°C 32.9°F0.5°C 66% 0.7 mph SSW1.1 kmh SSW 1.6 mph2.6 kmh 29.55 in1000.7 mb 0.00 in0.0 mm 0.00 in0.0 mm 0.00 in0.0 mm
08:15 AM 43.7°F6.5°C 33.1°F0.6°C 66% 0.7 mph SSE1.1 kmh SSE 2.2 mph3.5 kmh 29.55 in1000.7 mb 0.00 in0.0 mm 0.00 in0.0 mm 0.00 in0.0 mm
08:30 AM 43.9°F6.6°C 33.3°F0.7°C 66% Calm Calm 1.6 mph2.6 kmh 29.55 in1000.7 mb 0.00 in0.0 mm 0.00 in0.0 mm 0.00 in0.0 mm
08:45 AM 44.1°F6.7°C 31.9°F-0.1°C 62% Calm Calm 0.7 mph1.1 kmh 29.56 in1001.0 mb 0.00 in0.0 mm 0.00 in0.0 mm 0.00 in0.0 mm
09:00 AM 44.2°F6.8°C 32.1°F0.1°C 62% Calm Calm 2.2 mph3.5 kmh 29.55 in1000.7 mb 0.00 in0.0 mm 0.00 in0.0 mm 0.00 in0.0 mm
09:15 AM 44.6°F7.0°C 32.4°F0.2°C 62% 1.6 mph ENE2.6 kmh ENE 2.2 mph3.5 kmh 29.55 in1000.7 mb 0.00 in0.0 mm 0.00 in0.0 mm 0.00 in0.0 mm
09:30 AM 45.3°F7.4°C 33.5°F0.8°C 63% 0.7 mph ENE1.1 kmh ENE 3.8 mph6.1 kmh 29.54 in1000.3 mb 0.00 in0.0 mm 0.00 in0.0 mm 0.00 in0.0 mm
09:45 AM 46.2°F7.9°C 33.5°F0.8°C 61% 0.7 mph E1.1 kmh E 3.8 mph6.1 kmh 29.54 in1000.3 mb 0.00 in0.0 mm 0.00 in0.0 mm 0.00 in0.0 mm
10:00 AM 47.3°F8.5°C 34.1°F1.2°C 60% 0.7 mph E1.1 kmh E 3.8 mph6.1 kmh 29.54 in1000.3 mb 0.00 in0.0 mm 0.00 in0.0 mm 0.00 in0.0 mm
10:15 AM 47.8°F8.8°C 31.1°F-0.5°C 52% 8.3 mph ENE13.4 kmh ENE 13.6 mph21.9 kmh 29.54 in1000.3 mb 0.00 in0.0 mm 0.00 in0.0 mm 0.00 in0.0 mm
10:30 AM 48.6°F9.2°C 31.3°F-0.4°C 51% 2.2 mph ENE3.5 kmh ENE 8.3 mph13.4 kmh 29.54 in1000.3 mb 0.00 in0.0 mm 0.00 in0.0 mm 0.00 in0.0 mm
10:45 AM 49.1°F9.5°C 31.8°F-0.1°C 51% 4.5 mph ENE7.2 kmh ENE 6.9 mph11.1 kmh 29.54 in1000.3 mb 0.00 in0.0 mm 0.00 in0.0 mm 0.00 in0.0 mm
11:00 AM 48.6°F9.2°C 28.7°F-1.8°C 46% 6.0 mph ENE9.7 kmh ENE 12.1 mph19.5 kmh 29.55 in1000.7 mb 0.00 in0.0 mm 0.00 in0.0 mm 0.00 in0.0 mm
11:15 AM 48.2°F9.0°C 28.9°F-1.7°C 47% 5.4 mph E8.7 kmh E 15.2 mph24.5 kmh 29.55 in1000.7 mb 0.00 in0.0 mm 0.00 in0.0 mm 0.00 in0.0 mm
11:30 AM 47.8°F8.8°C 29.1°F-1.6°C 48% 3.8 mph ENE6.1 kmh ENE 9.8 mph15.8 kmh 29.55 in1000.7 mb 0.00 in0.0 mm 0.00 in0.0 mm 0.00 in0.0 mm
11:45 AM 47.7°F8.7°C 28.4°F-2.0°C 47% 5.4 mph E8.7 kmh E 20.6 mph33.2 kmh 29.55 in1000.7 mb 0.00 in0.0 mm 0.00 in0.0 mm 0.00 in0.0 mm
12:00 PM 47.7°F8.7°C 28.9°F-1.7°C 48% 6.0 mph ENE9.7 kmh ENE 8.3 mph13.4 kmh 29.55 in1000.7 mb 0.00 in0.0 mm 0.00 in0.0 mm 0.00 in0.0 mm
12:15 PM 47.7°F8.7°C 28.9°F-1.7°C 48% 3.1 mph E5.0 kmh E 6.0 mph9.7 kmh 29.55 in1000.7 mb 0.00 in0.0 mm 0.00 in0.0 mm 0.00 in0.0 mm
12:30 PM 47.8°F8.8°C 29.1°F-1.6°C 48% 3.1 mph NE5.0 kmh NE 9.2 mph14.8 kmh 29.54 in1000.3 mb 0.00 in0.0 mm 0.00 in0.0 mm 0.00 in0.0 mm
12:45 PM 48.0°F8.9°C 28.8°F-1.8°C 47% 5.4 mph ENE8.7 kmh ENE 12.1 mph19.5 kmh 29.54 in1000.3 mb 0.00 in0.0 mm 0.00 in0.0 mm 0.00 in0.0 mm
01:00 PM 48.6°F9.2°C 30.3°F-0.9°C 49% 3.8 mph NE6.1 kmh NE 9.8 mph15.8 kmh 29.54 in1000.3 mb 0.00 in0.0 mm 0.00 in0.0 mm 0.00 in0.0 mm
01:15 PM 49.1°F9.5°C 31.3°F-0.4°C 50% 7.6 mph ENE12.2 kmh ENE 14.5 mph23.3 kmh 29.52 in999.7 mb 0.00 in0.0 mm 0.00 in0.0 mm 0.00 in0.0 mm
01:30 PM 48.9°F9.4°C 31.1°F-0.5°C 50% 6.9 mph NE11.1 kmh NE 9.8 mph15.8 kmh 29.52 in999.7 mb 0.00 in0.0 mm 0.00 in0.0 mm 0.00 in0.0 mm
01:45 PM 50.0°F10.0°C 32.1°F0.1°C 50% 9.2 mph NE14.8 kmh NE 13.0 mph20.9 kmh 29.51 in999.3 mb 0.00 in0.0 mm 0.00 in0.0 mm 0.00 in0.0 mm
02:00 PM 51.4°F10.8°C 33.4°F0.8°C 50% 8.3 mph E13.4 kmh E 10.7 mph17.2 kmh 29.51 in999.3 mb 0.00 in0.0 mm 0.00 in0.0 mm 0.00 in0.0 mm
02:15 PM 49.8°F9.9°C 32.4°F0.2°C 51% 10.7 mph NE17.2 kmh NE 17.4 mph28.0 kmh 29.51 in999.3 mb 0.00 in0.0 mm 0.00 in0.0 mm 0.00 in0.0 mm
02:30 PM 49.6°F9.8°C 32.3°F0.2°C 51% 8.3 mph ENE13.4 kmh ENE 13.0 mph20.9 kmh 29.51 in999.3 mb 0.00 in0.0 mm 0.00 in0.0 mm 0.00 in0.0 mm
02:45 PM 48.6°F9.2°C 32.2°F0.1°C 53% 6.9 mph ENE11.1 kmh ENE 13.6 mph21.9 kmh 29.50 in999.0 mb 0.00 in0.0 mm 0.00 in0.0 mm 0.00 in0.0 mm
03:00 PM 48.6°F9.2°C 32.7°F0.4°C 54% 6.9 mph ENE11.1 kmh ENE 14.5 mph23.3 kmh 29.50 in999.0 mb 0.00 in0.0 mm 0.00 in0.0 mm 0.00 in0.0 mm
03:15 PM 48.4°F9.1°C 32.5°F0.3°C 54% 7.6 mph NE12.2 kmh NE 12.1 mph19.5 kmh 29.50 in999.0 mb 0.00 in0.0 mm 0.00 in0.0 mm 0.00 in0.0 mm
03:30 PM 47.8°F8.8°C 33.4°F0.8°C 57% 9.2 mph ENE14.8 kmh ENE 12.1 mph19.5 kmh 29.50 in999.0 mb 0.00 in0.0 mm 0.00 in0.0 mm 0.00 in0.0 mm
03:45 PM 47.5°F8.6°C 34.3°F1.3°C 60% 9.8 mph NE15.8 kmh NE 13.6 mph21.9 kmh 29.51 in999.3 mb 0.00 in0.0 mm 0.00 in0.0 mm 0.00 in0.0 mm
04:00 PM 46.8°F8.2°C 34.0°F1.1°C 61% 9.2 mph NE14.8 kmh NE 13.0 mph20.9 kmh 29.51 in999.3 mb 0.00 in0.0 mm 0.00 in0.0 mm 0.00 in0.0 mm
04:15 PM 46.8°F8.2°C 34.4°F1.3°C 62% 7.6 mph NE12.2 kmh NE 13.6 mph21.9 kmh 29.51 in999.3 mb 0.00 in0.0 mm 0.00 in0.0 mm 0.00 in0.0 mm
04:30 PM 47.3°F8.5°C 34.5°F1.4°C 61% 6.9 mph NE11.1 kmh NE 18.3 mph29.5 kmh 29.51 in999.3 mb 0.00 in0.0 mm 0.00 in0.0 mm 0.00 in0.0 mm
04:45 PM 47.3°F8.5°C 34.5°F1.4°C 61% 6.9 mph NE11.1 kmh NE 11.4 mph18.3 kmh 29.50 in999.0 mb 0.00 in0.0 mm 0.00 in0.0 mm 0.00 in0.0 mm
05:00 PM 47.3°F8.5°C 35.4°F1.9°C 63% 6.0 mph NE9.7 kmh NE 10.7 mph17.2 kmh 29.52 in999.7 mb 0.00 in0.0 mm 0.00 in0.0 mm 0.00 in0.0 mm
05:15 PM 46.6°F8.1°C 35.5°F1.9°C 65% 9.2 mph ENE14.8 kmh ENE 14.5 mph23.3 kmh 29.51 in999.3 mb 0.00 in0.0 mm 0.00 in0.0 mm 0.00 in0.0 mm
05:30 PM 45.9°F7.7°C 36.3°F2.4°C 69% 9.2 mph ENE14.8 kmh ENE 11.4 mph18.3 kmh 29.52 in999.7 mb 0.00 in0.0 mm 0.00 in0.0 mm 0.00 in0.0 mm
05:45 PM 45.5°F7.5°C 36.7°F2.6°C 71% 10.7 mph ENE17.2 kmh ENE 13.6 mph21.9 kmh 29.53 in1000.0 mb 0.00 in0.0 mm 0.00 in0.0 mm 0.00 in0.0 mm
06:00 PM 43.0°F6.1°C 37.6°F3.1°C 81% 5.4 mph ENE8.7 kmh ENE 13.6 mph21.9 kmh 29.54 in1000.3 mb 0.00 in0.0 mm 0.00 in0.0 mm 0.00 in0.0 mm
06:15 PM 42.3°F5.7°C 37.5°F3.1°C 83% 3.1 mph ENE5.0 kmh ENE 7.6 mph12.2 kmh 29.54 in1000.3 mb 0.01 in0.3 mm 0.04 in1.0 mm 0.01 in0.3 mm
06:30 PM 42.3°F5.7°C 37.8°F3.2°C 84% 5.4 mph ENE8.7 kmh ENE 7.6 mph12.2 kmh 29.55 in1000.7 mb 0.01 in0.3 mm 0.00 in0.0 mm 0.01 in0.3 mm
06:45 PM 41.9°F5.5°C 37.7°F3.2°C 85% 5.4 mph NE8.7 kmh NE 8.3 mph13.4 kmh 29.55 in1000.7 mb 0.01 in0.3 mm 0.00 in0.0 mm 0.01 in0.3 mm
07:00 PM 41.5°F5.3°C 37.1°F2.8°C 84% 3.1 mph E5.0 kmh E 6.0 mph9.7 kmh 29.55 in1000.7 mb 0.01 in0.3 mm 0.00 in0.0 mm 0.01 in0.3 mm
07:15 PM 41.5°F5.3°C 37.4°F3.0°C 85% 5.4 mph ENE8.7 kmh ENE 7.6 mph12.2 kmh 29.55 in1000.7 mb 0.00 in0.0 mm 0.00 in0.0 mm 0.01 in0.3 mm
07:30 PM 41.4°F5.2°C 37.2°F2.9°C 85% 5.4 mph NE8.7 kmh NE 7.6 mph12.2 kmh 29.56 in1001.0 mb 0.00 in0.0 mm 0.00 in0.0 mm 0.01 in0.3 mm
07:45 PM 41.4°F5.2°C 37.5°F3.1°C 86% 2.2 mph ENE3.5 kmh ENE 6.9 mph11.1 kmh 29.55 in1000.7 mb 0.00 in0.0 mm 0.00 in0.0 mm 0.01 in0.3 mm
08:00 PM 41.2°F5.1°C 37.0°F2.8°C 85% 0.7 mph E1.1 kmh E 3.1 mph5.0 kmh 29.56 in1001.0 mb 0.00 in0.0 mm 0.00 in0.0 mm 0.01 in0.3 mm
08:15 PM 41.2°F5.1°C 37.0°F2.8°C 85% 3.1 mph NE5.0 kmh NE 3.8 mph6.1 kmh 29.56 in1001.0 mb 0.00 in0.0 mm 0.00 in0.0 mm 0.01 in0.3 mm
08:30 PM 41.4°F5.2°C 37.2°F2.9°C 85% 2.2 mph ENE3.5 kmh ENE 4.5 mph7.2 kmh 29.57 in1001.4 mb 0.00 in0.0 mm 0.00 in0.0 mm 0.01 in0.3 mm
08:45 PM 41.5°F5.3°C 37.4°F3.0°C 85% 1.6 mph ENE2.6 kmh ENE 4.5 mph7.2 kmh 29.57 in1001.4 mb 0.00 in0.0 mm 0.00 in0.0 mm 0.01 in0.3 mm
09:00 PM 41.5°F5.3°C 37.4°F3.0°C 85% 6.9 mph ENE11.1 kmh ENE 8.3 mph13.4 kmh 29.57 in1001.4 mb 0.00 in0.0 mm 0.00 in0.0 mm 0.01 in0.3 mm
09:15 PM 41.7°F5.4°C 37.6°F3.1°C 85% 1.6 mph ENE2.6 kmh ENE 6.0 mph9.7 kmh 29.58 in1001.7 mb 0.00 in0.0 mm 0.00 in0.0 mm 0.01 in0.3 mm
09:30 PM 41.9°F5.5°C 37.7°F3.2°C 85% 3.1 mph NE5.0 kmh NE 4.5 mph7.2 kmh 29.58 in1001.7 mb 0.00 in0.0 mm 0.00 in0.0 mm 0.01 in0.3 mm
09:45 PM 41.7°F5.4°C 37.6°F3.1°C 85% 2.2 mph ENE3.5 kmh ENE 3.8 mph6.1 kmh 29.57 in1001.4 mb 0.00 in0.0 mm 0.00 in0.0 mm 0.01 in0.3 mm
10:00 PM 41.7°F5.4°C 37.8°F3.2°C 86% 0.7 mph ENE1.1 kmh ENE 3.8 mph6.1 kmh 29.58 in1001.7 mb 0.00 in0.0 mm 0.00 in0.0 mm 0.01 in0.3 mm
10:15 PM 41.5°F5.3°C 37.7°F3.2°C 86% 1.6 mph E2.6 kmh E 2.2 mph3.5 kmh 29.58 in1001.7 mb 0.00 in0.0 mm 0.00 in0.0 mm 0.01 in0.3 mm
10:30 PM 41.5°F5.3°C 37.7°F3.2°C 86% 1.6 mph E2.6 kmh E 3.1 mph5.0 kmh 29.58 in1001.7 mb 0.00 in0.0 mm 0.00 in0.0 mm 0.01 in0.3 mm
10:45 PM 41.5°F5.3°C 38.0°F3.3°C 87% 1.6 mph E2.6 kmh E 4.5 mph7.2 kmh 29.58 in1001.7 mb 0.00 in0.0 mm 0.00 in0.0 mm 0.01 in0.3 mm
11:00 PM 41.5°F5.3°C 38.3°F3.5°C 88% 0.7 mph E1.1 kmh E 3.1 mph5.0 kmh 29.58 in1001.7 mb 0.00 in0.0 mm 0.00 in0.0 mm 0.01 in0.3 mm
11:15 PM 41.4°F5.2°C 38.1°F3.4°C 88% 1.6 mph E2.6 kmh E 3.1 mph5.0 kmh 29.59 in1002.0 mb 0.00 in0.0 mm 0.00 in0.0 mm 0.01 in0.3 mm
11:30 PM 41.4°F5.2°C 38.4°F3.6°C 89% 3.8 mph ENE6.1 kmh ENE 5.4 mph8.7 kmh 29.59 in1002.0 mb 0.00 in0.0 mm 0.00 in0.0 mm 0.01 in0.3 mm
11:45 PM 40.3°F4.6°C 37.0°F2.8°C 88% 6.0 mph NE9.7 kmh NE 9.2 mph14.8 kmh 29.59 in1002.0 mb 0.00 in0.0 mm 0.00 in0.0 mm 0.01 in0.3 mm